createdAt,value
2017-12-25T00:00:06.154Z,92.40
2017-12-25T00:02:32.183Z,92.31
2017-12-25T00:04:58.197Z,92.46
2017-12-25T00:07:24.260Z,92.48
2017-12-25T00:09:50.281Z,92.58
2017-12-25T00:12:16.331Z,92.69
2017-12-25T00:14:42.389Z,92.62
2017-12-25T00:17:08.443Z,92.74
2017-12-25T00:19:34.468Z,93.03
2017-12-25T00:22:00.531Z,93.24
2017-12-25T00:24:26.629Z,92.92
2017-12-25T00:26:53.020Z,93.14
2017-12-25T00:29:18.992Z,93.41
2017-12-25T00:31:45.037Z,93.40
2017-12-25T00:34:14.266Z,93.47
2017-12-25T00:36:40.408Z,93.46
2017-12-25T00:39:06.410Z,93.65
2017-12-25T00:41:32.477Z,93.36
2017-12-25T00:43:58.902Z,93.57
2017-12-25T00:46:24.910Z,93.67
2017-12-25T00:48:50.967Z,94.01
2017-12-25T00:51:17.144Z,93.89
2017-12-25T00:53:43.251Z,93.98
2017-12-25T00:56:09.308Z,93.94
2017-12-25T00:58:35.320Z,93.87
2017-12-25T01:01:01.350Z,94.08
2017-12-25T01:03:27.388Z,94.08
2017-12-25T01:05:53.827Z,94.15
2017-12-25T01:08:19.858Z,94.23
2017-12-25T01:10:45.890Z,94.31
2017-12-25T01:13:11.933Z,94.34
2017-12-25T01:15:37.993Z,94.33
2017-12-25T01:18:04.026Z,94.38
2017-12-25T01:20:30.299Z,94.40
2017-12-25T01:22:58.347Z,94.50
2017-12-25T01:25:24.959Z,94.33
2017-12-25T01:37:38.605Z,94.23
2017-12-25T01:40:06.899Z,94.22
2017-12-25T01:42:33.057Z,94.13
2017-12-25T01:45:13.276Z,94.10
2017-12-25T01:47:42.188Z,94.09
2017-12-25T01:50:19.888Z,94.13
2017-12-25T01:52:48.492Z,93.99
2017-12-25T01:55:15.538Z,94.10
2017-12-25T02:01:02.548Z,93.71
2017-12-25T02:03:40.236Z,93.80
2017-12-25T02:06:19.999Z,93.80
2017-12-25T02:08:47.026Z,94.07
2017-12-25T02:11:15.301Z,94.17
2017-12-25T02:13:46.516Z,94.05
2017-12-25T02:16:15.475Z,94.10
2017-12-25T02:18:53.547Z,94.09
2017-12-25T02:21:30.759Z,94.14
2017-12-25T02:23:58.718Z,94.02
2017-12-25T02:26:27.127Z,94.08
2017-12-25T02:28:54.139Z,93.93
2017-12-25T02:31:22.703Z,93.92
2017-12-25T02:33:49.837Z,93.71
2017-12-25T02:36:17.010Z,93.68
2017-12-25T02:38:44.472Z,94.00
2017-12-25T02:41:21.575Z,93.69
2017-12-25T02:43:49.575Z,94.02
2017-12-25T02:46:16.645Z,93.69
2017-12-25T02:48:43.995Z,93.61
2017-12-25T02:51:23.155Z,93.66
2017-12-25T02:53:51.724Z,93.89
2017-12-25T02:56:17.782Z,94.04
2017-12-25T02:58:43.851Z,93.94
2017-12-25T03:01:09.905Z,93.85
2017-12-25T03:03:35.909Z,93.90
2017-12-25T03:06:01.947Z,93.76
2017-12-25T03:08:27.976Z,93.79
2017-12-25T03:10:54.445Z,93.72
2017-12-25T03:13:20.530Z,93.74
2017-12-25T03:15:46.569Z,93.47
2017-12-25T03:18:12.589Z,93.50
2017-12-25T03:20:38.623Z,93.56
2017-12-25T03:23:04.641Z,93.58
2017-12-25T03:25:30.630Z,93.31
2017-12-25T03:27:56.676Z,93.16
2017-12-25T03:30:22.674Z,93.19
2017-12-25T03:32:49.086Z,93.00
2017-12-25T03:35:15.124Z,93.11
2017-12-25T03:37:41.180Z,93.37
2017-12-25T03:40:07.182Z,93.17
2017-12-25T03:42:33.181Z,93.25
2017-12-25T03:44:59.204Z,93.32
2017-12-25T03:47:25.205Z,93.53
2017-12-25T03:49:51.225Z,93.45
2017-12-25T03:52:17.278Z,93.26
2017-12-25T03:54:43.337Z,93.18
2017-12-25T03:57:09.369Z,93.35
2017-12-25T03:59:35.792Z,93.35
2017-12-25T04:02:01.778Z,93.10
2017-12-25T04:04:27.805Z,93.10
2017-12-25T04:06:53.830Z,92.98
2017-12-25T04:09:19.788Z,92.63
2017-12-25T04:11:45.852Z,92.56
2017-12-25T04:14:11.868Z,92.05
2017-12-25T04:16:37.900Z,92.49
2017-12-25T04:19:03.909Z,91.76
2017-12-25T04:21:29.949Z,91.78
2017-12-25T04:23:55.965Z,91.69
2017-12-25T04:26:21.991Z,91.65
2017-12-25T04:28:48.035Z,92.07
2017-12-25T04:31:14.062Z,91.65
2017-12-25T04:33:40.117Z,91.67
2017-12-25T04:36:06.097Z,91.58
2017-12-25T04:38:32.131Z,91.50
2017-12-25T04:40:58.217Z,91.71
2017-12-25T04:43:24.273Z,91.79
2017-12-25T04:45:50.318Z,91.62
2017-12-25T04:48:16.804Z,91.13
2017-12-25T04:50:42.853Z,90.98
2017-12-25T04:53:08.893Z,90.91
2017-12-25T04:55:34.945Z,90.74
2017-12-25T04:58:00.977Z,90.89
2017-12-25T05:00:27.017Z,90.46
2017-12-25T05:02:53.013Z,90.40
2017-12-25T05:05:19.382Z,90.34
2017-12-25T05:07:45.406Z,90.39
2017-12-25T05:10:11.453Z,90.36
2017-12-25T05:12:37.506Z,90.26
2017-12-25T05:15:03.619Z,90.07
2017-12-25T05:17:29.658Z,90.26
2017-12-25T05:19:55.633Z,90.26
2017-12-25T05:22:21.682Z,90.56
2017-12-25T05:24:47.701Z,90.61
2017-12-25T05:27:13.752Z,90.52
2017-12-25T05:29:39.773Z,90.58
2017-12-25T05:32:05.808Z,90.32
2017-12-25T05:34:31.840Z,90.58
2017-12-25T05:36:58.181Z,90.28
2017-12-25T05:39:24.187Z,90.46
2017-12-25T05:41:50.265Z,90.41
2017-12-25T05:44:16.304Z,90.21
2017-12-25T05:46:42.289Z,90.15
2017-12-25T05:49:08.314Z,90.13
2017-12-25T05:51:34.364Z,90.33
2017-12-25T05:54:00.377Z,90.31
2017-12-25T05:56:26.413Z,90.35
2017-12-25T05:58:52.949Z,90.09
2017-12-25T06:01:19.012Z,90.38
2017-12-25T06:03:45.058Z,90.16
2017-12-25T06:06:11.077Z,90.36
2017-12-25T06:08:37.073Z,90.28
2017-12-25T06:11:03.126Z,90.28
2017-12-25T06:13:29.144Z,90.25
2017-12-25T06:15:55.166Z,90.16
2017-12-25T06:18:21.197Z,90.26
2017-12-25T06:20:47.199Z,90.73
2017-12-25T06:23:13.220Z,90.64
2017-12-25T06:25:39.662Z,90.69
2017-12-25T06:28:05.678Z,90.83
2017-12-25T06:30:31.941Z,90.90
2017-12-25T06:32:57.906Z,90.82
2017-12-25T06:35:23.861Z,90.83
2017-12-25T06:37:49.885Z,90.75
2017-12-25T06:40:15.927Z,90.94
2017-12-25T06:42:42.321Z,91.09
2017-12-25T06:45:08.366Z,90.86
2017-12-25T06:47:34.356Z,90.78
2017-12-25T06:50:00.437Z,90.93
2017-12-25T06:52:26.505Z,91.08
2017-12-25T06:54:52.482Z,91.14
2017-12-25T06:57:18.569Z,91.16
2017-12-25T06:59:44.654Z,90.77
2017-12-25T07:02:10.672Z,90.84
2017-12-25T07:04:37.177Z,90.97
2017-12-25T07:07:03.184Z,90.82
2017-12-25T07:09:29.209Z,90.90
2017-12-25T07:11:55.271Z,90.95
2017-12-25T07:14:21.308Z,90.97
2017-12-25T07:16:47.322Z,91.10
2017-12-25T07:19:13.324Z,91.32
2017-12-25T07:21:39.360Z,90.96
2017-12-25T07:24:05.377Z,90.58
2017-12-25T07:26:31.462Z,90.69
2017-12-25T07:28:57.496Z,90.93
2017-12-25T07:31:23.861Z,90.82
2017-12-25T07:33:49.908Z,90.69
2017-12-25T07:36:15.944Z,90.68
2017-12-25T07:38:42.004Z,90.75
2017-12-25T07:41:08.061Z,90.81
2017-12-25T07:43:34.080Z,90.74
2017-12-25T07:46:00.095Z,90.78
2017-12-25T07:48:26.148Z,90.76
2017-12-25T07:50:52.217Z,90.80
2017-12-25T07:53:18.268Z,90.49
2017-12-25T07:55:44.292Z,90.54
2017-12-25T07:58:10.326Z,90.44
2017-12-25T08:00:36.322Z,90.59
2017-12-25T08:03:02.280Z,90.54
2017-12-25T08:05:28.329Z,90.69
2017-12-25T08:07:54.681Z,90.42
2017-12-25T08:10:20.769Z,90.33
2017-12-25T08:12:46.792Z,90.66
2017-12-25T08:15:12.861Z,90.71
2017-12-25T08:17:38.899Z,90.44
2017-12-25T08:20:04.954Z,90.63
2017-12-25T08:22:30.989Z,90.57
2017-12-25T08:24:57.041Z,90.60
2017-12-25T08:27:23.093Z,90.57
2017-12-25T08:29:49.513Z,90.54
2017-12-25T08:32:15.463Z,90.57
2017-12-25T08:34:41.461Z,90.47
2017-12-25T08:37:07.523Z,90.71
2017-12-25T08:39:33.513Z,90.60
2017-12-25T08:41:59.526Z,90.64
2017-12-25T08:44:25.589Z,90.59
2017-12-25T08:46:51.628Z,90.67
2017-12-25T08:49:17.677Z,90.95
2017-12-25T08:51:43.724Z,90.91
2017-12-25T08:54:09.738Z,90.82
2017-12-25T08:56:35.762Z,90.68
2017-12-25T08:59:01.840Z,90.72
2017-12-25T09:01:27.874Z,90.50
2017-12-25T09:03:53.937Z,90.83
2017-12-25T09:06:19.998Z,90.52
2017-12-25T09:08:46.033Z,90.22
2017-12-25T09:11:12.053Z,90.43
2017-12-25T09:13:38.103Z,90.47
2017-12-25T09:16:04.146Z,90.10
2017-12-25T09:18:30.255Z,90.30
2017-12-25T09:20:56.310Z,90.31
2017-12-25T09:23:22.345Z,90.44
2017-12-25T09:25:48.381Z,90.33
2017-12-25T09:28:14.439Z,89.91
2017-12-25T09:30:40.509Z,90.21
2017-12-25T09:33:06.593Z,90.37
2017-12-25T09:35:32.624Z,90.47
2017-12-25T09:37:58.693Z,90.55
2017-12-25T09:40:24.726Z,90.83
2017-12-25T09:42:50.777Z,91.82
2017-12-25T09:45:16.871Z,90.62
2017-12-25T09:47:42.981Z,90.35
2017-12-25T09:50:09.002Z,89.92
2017-12-25T09:52:35.097Z,89.74
2017-12-25T09:55:01.164Z,90.02
2017-12-25T09:57:27.249Z,90.18
2017-12-25T09:59:57.197Z,89.49
2017-12-25T10:02:24.221Z,89.04
2017-12-25T10:04:50.309Z,88.75
2017-12-25T10:07:16.328Z,89.10
2017-12-25T10:09:42.370Z,88.68
2017-12-25T10:12:08.441Z,88.59
2017-12-25T10:14:34.553Z,88.56
2017-12-25T10:17:00.682Z,88.46
2017-12-25T10:19:26.717Z,88.45
2017-12-25T10:21:52.763Z,88.67
2017-12-25T10:24:18.758Z,88.13
2017-12-25T10:26:45.339Z,87.76
2017-12-25T10:29:11.509Z,87.51
2017-12-25T10:31:37.721Z,87.48
2017-12-25T10:34:03.777Z,87.45
2017-12-25T10:36:29.810Z,87.31
2017-12-25T10:38:55.825Z,87.40
2017-12-25T10:41:21.869Z,87.12
2017-12-25T10:43:47.889Z,86.40
2017-12-25T10:46:14.186Z,87.09
2017-12-25T10:48:40.190Z,86.11
2017-12-25T10:51:06.220Z,86.61
2017-12-25T10:53:32.225Z,85.98
2017-12-25T10:55:58.237Z,86.05
2017-12-25T10:58:24.325Z,86.80
2017-12-25T11:00:53.555Z,87.72
2017-12-25T11:03:19.625Z,87.37
2017-12-25T11:05:45.744Z,87.44
2017-12-25T11:08:11.748Z,87.29
2017-12-25T11:10:37.753Z,87.80
2017-12-25T11:13:04.109Z,87.75
2017-12-25T11:15:32.622Z,87.10
2017-12-25T11:17:58.634Z,87.48
2017-12-25T11:20:24.770Z,87.00
2017-12-25T11:22:50.812Z,86.79
2017-12-25T11:25:16.877Z,86.61
2017-12-25T11:27:42.984Z,86.71
2017-12-25T11:30:09.258Z,86.41
2017-12-25T11:32:35.289Z,86.54
2017-12-25T11:35:01.315Z,86.57
2017-12-25T11:37:27.385Z,86.67
2017-12-25T11:39:53.531Z,86.58
2017-12-25T11:42:19.499Z,86.45
2017-12-25T11:44:45.509Z,86.72
2017-12-25T11:47:11.540Z,86.97
2017-12-25T11:49:37.774Z,86.88
2017-12-25T11:52:03.820Z,87.29
2017-12-25T11:54:29.830Z,87.14
2017-12-25T11:56:55.862Z,86.90
2017-12-25T11:59:21.925Z,87.13
2017-12-25T12:01:48.014Z,86.47
2017-12-25T12:04:14.015Z,86.64
2017-12-25T12:06:40.057Z,86.55
2017-12-25T12:09:06.077Z,86.81
2017-12-25T12:11:32.125Z,87.22
2017-12-25T12:13:58.173Z,87.52
2017-12-25T12:19:16.980Z,87.27
2017-12-25T12:21:43.022Z,86.94
2017-12-25T12:24:09.070Z,86.86
2017-12-25T12:26:35.097Z,86.40
2017-12-25T12:29:01.152Z,86.78
2017-12-25T12:31:27.203Z,86.45
2017-12-25T12:33:53.243Z,86.22
2017-12-25T12:36:19.355Z,86.32
2017-12-25T12:38:45.414Z,86.34
2017-12-25T12:41:11.452Z,86.40
2017-12-25T12:43:37.497Z,86.56
2017-12-25T12:46:03.589Z,86.98
2017-12-25T12:48:29.604Z,86.88
2017-12-25T12:50:55.644Z,86.86
2017-12-25T12:53:21.695Z,86.81
2017-12-25T12:55:47.709Z,86.97
2017-12-25T12:58:13.767Z,86.96
2017-12-25T13:00:39.818Z,87.33
2017-12-25T13:03:05.911Z,86.67
2017-12-25T13:05:31.986Z,86.36
2017-12-25T13:07:58.074Z,87.01
2017-12-25T13:10:24.130Z,87.26
2017-12-25T13:12:50.162Z,87.24
2017-12-25T13:15:16.212Z,87.28
2017-12-25T13:17:42.284Z,87.41
2017-12-25T13:20:08.352Z,87.22
2017-12-25T13:22:34.373Z,87.02
2017-12-25T13:25:00.429Z,86.82
2017-12-25T13:27:26.485Z,87.05
2017-12-25T13:29:52.546Z,86.75
2017-12-25T13:32:18.604Z,86.88
2017-12-25T13:34:44.623Z,86.28
2017-12-25T13:37:10.738Z,86.22
2017-12-25T13:39:36.783Z,86.55
2017-12-25T13:42:02.829Z,86.04
2017-12-25T13:44:28.908Z,86.58
2017-12-25T13:46:54.898Z,86.56
2017-12-25T13:49:20.977Z,87.17
2017-12-25T13:51:47.062Z,86.89
2017-12-25T13:54:13.276Z,86.92
2017-12-25T13:56:39.329Z,86.42
2017-12-25T13:59:05.479Z,86.79
2017-12-25T14:01:31.830Z,86.97
2017-12-25T14:03:57.881Z,87.03
2017-12-25T14:06:23.901Z,88.01
2017-12-25T14:08:50.020Z,88.09
2017-12-25T14:11:20.785Z,88.41
2017-12-25T14:13:46.823Z,88.51
2017-12-25T14:16:12.854Z,88.51
2017-12-25T14:18:38.899Z,88.65
2017-12-25T14:21:04.922Z,88.41
2017-12-25T14:23:30.929Z,88.42
2017-12-25T14:25:56.977Z,88.60
2017-12-25T14:28:23.025Z,88.12
2017-12-25T14:30:49.048Z,88.05
2017-12-25T14:33:15.111Z,88.30
2017-12-25T14:35:41.178Z,87.79
2017-12-25T14:38:07.223Z,87.52
2017-12-25T14:40:33.275Z,88.23
2017-12-25T14:42:59.300Z,88.64
2017-12-25T14:45:25.370Z,88.34
2017-12-25T14:47:51.400Z,88.74
2017-12-25T14:50:17.533Z,89.22
2017-12-25T14:52:43.574Z,89.15
2017-12-25T14:55:09.602Z,89.39
2017-12-25T14:57:35.641Z,89.53
2017-12-25T15:00:01.740Z,89.43
2017-12-25T15:02:27.816Z,89.23
2017-12-25T15:04:53.864Z,89.49
2017-12-25T15:07:19.846Z,89.42
2017-12-25T15:09:45.886Z,89.38
2017-12-25T15:12:11.913Z,88.90
2017-12-25T15:14:37.981Z,89.16
2017-12-25T15:17:04.070Z,89.16
2017-12-25T15:19:30.223Z,88.71
2017-12-25T15:21:56.306Z,88.97
2017-12-25T15:24:22.393Z,88.87
2017-12-25T15:26:48.629Z,89.07
2017-12-25T15:29:14.669Z,89.31
2017-12-25T15:31:40.700Z,89.52
2017-12-25T15:34:06.794Z,89.96
2017-12-25T15:36:32.881Z,89.77
2017-12-25T15:38:58.993Z,89.83
2017-12-25T15:41:25.048Z,89.60
2017-12-25T15:43:51.330Z,89.92
2017-12-25T15:46:17.430Z,90.05
2017-12-25T15:48:43.465Z,89.94
2017-12-25T15:51:09.538Z,89.84
2017-12-25T15:53:35.631Z,89.56
2017-12-25T15:56:02.617Z,89.99
2017-12-25T15:58:28.680Z,89.90
2017-12-25T16:00:54.745Z,90.20
2017-12-25T16:03:20.742Z,90.03
2017-12-25T16:05:46.830Z,90.57
2017-12-25T16:08:12.939Z,90.24
2017-12-25T16:10:38.992Z,90.31
2017-12-25T16:13:05.249Z,90.37
2017-12-25T16:15:31.374Z,90.58
2017-12-25T16:17:57.386Z,90.96
2017-12-25T16:20:23.517Z,90.87
2017-12-25T16:22:49.577Z,90.82
2017-12-25T16:25:15.718Z,90.57
2017-12-25T16:27:41.816Z,90.82
2017-12-25T16:30:07.882Z,90.58
2017-12-25T16:32:38.706Z,90.58
2017-12-25T16:35:05.313Z,91.09
2017-12-25T16:37:32.102Z,91.28
2017-12-25T16:39:58.567Z,91.52
2017-12-25T16:42:25.500Z,91.69
2017-12-25T16:44:51.876Z,91.94
2017-12-25T16:47:18.009Z,92.20
2017-12-25T16:49:44.138Z,92.30
2017-12-25T16:52:10.311Z,92.25
2017-12-25T16:54:36.536Z,92.32
2017-12-25T16:57:02.678Z,92.30
2017-12-25T16:59:28.933Z,91.86
2017-12-25T17:01:55.299Z,92.51
2017-12-25T17:04:21.399Z,91.86
2017-12-25T17:06:47.538Z,92.29
2017-12-25T17:09:13.618Z,91.79
2017-12-25T17:11:39.713Z,91.85
2017-12-25T17:14:05.814Z,91.94
2017-12-25T17:16:31.879Z,92.16
2017-12-25T17:18:57.944Z,92.33
2017-12-25T17:21:24.047Z,92.42
2017-12-25T17:23:50.093Z,92.44
2017-12-25T17:26:16.183Z,92.68
2017-12-25T17:28:42.331Z,93.00
2017-12-25T17:31:08.418Z,92.73
2017-12-25T17:33:34.538Z,92.74
2017-12-25T17:36:00.614Z,92.62
2017-12-25T17:38:26.650Z,92.56
2017-12-25T17:40:52.771Z,92.85
2017-12-25T17:43:18.944Z,92.98
2017-12-25T17:45:45.112Z,93.22
2017-12-25T17:48:11.220Z,92.76
2017-12-25T17:50:37.466Z,92.82
2017-12-25T17:53:03.511Z,93.05
2017-12-25T17:55:29.606Z,93.16
2017-12-25T17:57:55.705Z,92.96
2017-12-25T18:00:21.876Z,92.95
2017-12-25T18:02:47.970Z,92.94
2017-12-25T18:05:14.061Z,93.16
2017-12-25T18:07:40.421Z,93.18
2017-12-25T18:10:06.513Z,93.13
2017-12-25T18:12:32.693Z,93.04
2017-12-25T18:14:58.806Z,92.98
2017-12-25T18:17:24.881Z,92.69
2017-12-25T18:19:50.944Z,92.49
2017-12-25T18:22:17.005Z,92.27
2017-12-25T18:24:43.167Z,92.31
2017-12-25T18:27:09.232Z,92.51
2017-12-25T18:29:35.342Z,92.41
2017-12-25T18:32:01.467Z,92.84
2017-12-25T18:34:27.537Z,93.12
2017-12-25T18:36:53.675Z,93.26
2017-12-25T18:39:19.766Z,93.06
2017-12-25T18:41:45.927Z,93.00
2017-12-25T18:44:12.079Z,92.68
2017-12-25T18:46:38.185Z,92.76
2017-12-25T18:49:04.295Z,93.03
2017-12-25T18:51:30.357Z,92.75
2017-12-25T18:53:56.441Z,92.63
2017-12-25T18:56:22.654Z,92.81
2017-12-25T18:58:48.726Z,92.78
2017-12-25T19:01:14.835Z,92.38
2017-12-25T19:03:40.947Z,92.79
2017-12-25T19:06:07.151Z,93.06
2017-12-25T19:08:33.210Z,92.89
2017-12-25T19:10:59.395Z,92.47
2017-12-25T19:13:25.513Z,92.54
2017-12-25T19:15:51.652Z,92.59
2017-12-25T19:18:17.749Z,92.29
2017-12-25T19:20:43.874Z,92.19
2017-12-25T19:23:10.001Z,92.55
2017-12-25T19:25:36.082Z,92.43
2017-12-25T19:28:02.234Z,92.16
2017-12-25T19:30:28.335Z,92.05
2017-12-25T19:32:54.415Z,91.67
2017-12-25T19:35:20.578Z,91.70
2017-12-25T19:37:46.786Z,91.86
2017-12-25T19:40:12.993Z,91.93
2017-12-25T19:42:39.063Z,91.86
2017-12-25T19:45:05.362Z,91.71
2017-12-25T19:47:31.438Z,91.35
2017-12-25T19:49:57.567Z,91.44
2017-12-25T19:52:23.689Z,91.45
2017-12-25T19:54:49.953Z,92.24
2017-12-25T19:57:16.035Z,91.95
2017-12-25T19:59:42.428Z,91.60
2017-12-25T20:02:08.493Z,91.99
2017-12-25T20:04:34.649Z,91.85
2017-12-25T20:07:00.860Z,91.90
2017-12-25T20:09:26.923Z,91.78
2017-12-25T20:11:53.152Z,91.46
2017-12-25T20:14:19.249Z,91.49
2017-12-25T20:16:45.459Z,91.63
2017-12-25T20:19:11.553Z,92.04
2017-12-25T20:21:37.717Z,91.50
2017-12-25T20:24:03.924Z,91.42
2017-12-25T20:26:29.986Z,90.91
2017-12-25T20:28:56.162Z,90.68
2017-12-25T20:31:22.326Z,90.39
2017-12-25T20:33:48.468Z,90.47
2017-12-25T20:36:14.547Z,90.78
2017-12-25T20:38:40.596Z,90.44
2017-12-25T20:41:06.732Z,90.15
2017-12-25T20:43:32.826Z,90.37
2017-12-25T20:45:59.077Z,90.51
2017-12-25T20:48:25.195Z,90.88
2017-12-25T20:50:51.267Z,90.69
2017-12-25T20:53:17.427Z,90.92
2017-12-25T20:55:43.671Z,91.26
2017-12-25T20:58:09.861Z,91.37
2017-12-25T21:00:35.920Z,90.92
2017-12-25T21:03:02.068Z,90.64
2017-12-25T21:05:28.149Z,90.56
2017-12-25T21:07:54.222Z,90.89
2017-12-25T21:10:20.306Z,90.88
2017-12-25T21:12:46.362Z,91.04
2017-12-25T21:15:12.467Z,91.21
2017-12-25T21:17:38.560Z,90.86
2017-12-25T21:20:04.622Z,90.64
2017-12-25T21:22:30.733Z,90.78
2017-12-25T21:24:56.861Z,90.43
2017-12-25T21:27:22.911Z,90.60
2017-12-25T21:29:48.994Z,90.85
2017-12-25T21:32:15.331Z,90.56
2017-12-25T21:34:41.450Z,90.73
2017-12-25T21:37:07.567Z,91.10
2017-12-25T21:39:33.726Z,90.92
2017-12-25T21:42:00.068Z,91.01
2017-12-25T21:44:26.135Z,91.11
2017-12-25T21:46:52.251Z,91.05
2017-12-25T21:49:18.323Z,90.85
2017-12-25T21:51:44.495Z,91.20
2017-12-25T21:54:10.660Z,91.56
2017-12-25T21:56:36.785Z,91.73
2017-12-25T21:59:02.880Z,91.40
2017-12-25T22:01:29.008Z,91.24
2017-12-25T22:03:55.140Z,91.11
2017-12-25T22:06:21.310Z,91.14
2017-12-25T22:08:47.573Z,91.66
2017-12-25T22:11:14.132Z,91.59
2017-12-25T22:13:40.291Z,91.35
2017-12-25T22:16:06.416Z,91.19
2017-12-25T22:18:39.477Z,91.29
2017-12-25T22:21:05.573Z,91.17
2017-12-25T22:23:31.667Z,91.67
2017-12-25T22:25:57.773Z,91.40
2017-12-25T22:28:23.885Z,91.40
2017-12-25T22:30:50.055Z,91.08
2017-12-25T22:33:16.185Z,91.21
2017-12-25T22:35:42.682Z,91.09
2017-12-25T22:38:08.832Z,91.10
2017-12-25T22:40:35.001Z,90.62
2017-12-25T22:43:01.382Z,90.48
2017-12-25T22:45:27.531Z,90.82
2017-12-25T22:47:53.722Z,90.83
2017-12-25T22:50:20.014Z,90.92
2017-12-25T22:52:46.121Z,90.80
2017-12-25T22:55:26.725Z,90.92
2017-12-25T22:57:52.856Z,91.27
2017-12-25T23:00:18.976Z,91.38
2017-12-25T23:02:45.094Z,91.51
2017-12-25T23:05:11.222Z,91.51
2017-12-25T23:07:37.479Z,91.73
2017-12-25T23:10:03.635Z,91.49
2017-12-25T23:12:30.012Z,91.46
2017-12-25T23:14:56.154Z,91.25
2017-12-25T23:17:22.269Z,91.80
2017-12-25T23:19:48.331Z,91.83
2017-12-25T23:22:14.456Z,91.49
2017-12-25T23:24:40.569Z,91.41
2017-12-25T23:27:07.139Z,91.51
2017-12-25T23:29:33.304Z,91.28
